createdAt,value
2018-03-31T00:00:21.424Z,82.90
2018-03-31T00:02:48.508Z,82.90
2018-03-31T00:05:15.510Z,82.90
2018-03-31T00:07:43.277Z,83.70
2018-03-31T00:10:11.016Z,82.80
2018-03-31T00:12:38.074Z,82.80
2018-03-31T00:15:05.829Z,83.80
2018-03-31T00:17:33.309Z,83.10
2018-03-31T00:20:00.245Z,83.60
2018-03-31T00:22:28.010Z,84.30
2018-03-31T00:24:55.052Z,84.30
2018-03-31T00:27:22.816Z,85.10
2018-03-31T00:29:49.971Z,85.10
2018-03-31T00:32:16.952Z,85.00
2018-03-31T00:34:43.948Z,83.90
2018-03-31T00:37:10.916Z,84.60
2018-03-31T00:39:38.663Z,85.30
2018-03-31T00:42:05.649Z,85.30
2018-03-31T00:44:32.715Z,85.10
2018-03-31T00:46:59.841Z,85.50
2018-03-31T00:49:27.589Z,84.90
2018-03-31T00:51:55.447Z,85.00
2018-03-31T00:54:22.438Z,85.00
2018-03-31T00:56:49.447Z,85.00
2018-03-31T00:59:17.228Z,85.60
2018-03-31T01:01:44.979Z,85.90
2018-03-31T01:04:12.733Z,85.50
2018-03-31T01:06:39.744Z,85.50
2018-03-31T01:09:06.840Z,85.20
2018-03-31T01:11:34.613Z,85.90
2018-03-31T01:14:02.355Z,86.10
2018-03-31T01:16:29.356Z,86.90
2018-03-31T01:18:56.320Z,85.70
2018-03-31T01:21:24.122Z,86.30
2018-03-31T01:23:51.876Z,86.10
2018-03-31T01:26:18.867Z,86.10
2018-03-31T01:28:45.833Z,87.20
2018-03-31T01:31:12.845Z,87.50
2018-03-31T01:33:39.954Z,87.50
2018-03-31T01:36:06.931Z,87.30
2018-03-31T01:38:34.707Z,86.90
2018-03-31T01:41:01.701Z,86.80
2018-03-31T01:43:28.691Z,87.80
2018-03-31T01:45:56.465Z,87.40
2018-03-31T01:48:24.313Z,87.40
2018-03-31T01:50:52.092Z,87.90
2018-03-31T01:53:19.834Z,87.50
2018-03-31T01:55:46.806Z,87.40
2018-03-31T01:58:14.615Z,87.50
2018-03-31T02:00:41.615Z,87.50
2018-03-31T02:03:09.419Z,87.60
2018-03-31T02:05:36.426Z,87.60
2018-03-31T02:08:03.427Z,87.70
2018-03-31T02:10:31.393Z,88.30
2018-03-31T02:12:58.404Z,88.50
2018-03-31T02:15:25.497Z,88.40
2018-03-31T02:17:52.471Z,88.40
2018-03-31T02:20:19.452Z,88.70
2018-03-31T02:22:46.425Z,88.40
2018-03-31T02:25:13.446Z,88.80
2018-03-31T02:27:40.426Z,88.70
2018-03-31T02:30:07.433Z,88.20
2018-03-31T02:32:34.421Z,87.90
2018-03-31T02:35:01.460Z,88.40
2018-03-31T02:37:29.224Z,88.90
2018-03-31T02:39:56.221Z,88.80
2018-03-31T02:42:23.974Z,88.60
2018-03-31T02:44:51.767Z,89.10
2018-03-31T02:47:18.763Z,88.60
2018-03-31T02:49:45.783Z,90.00
2018-03-31T02:52:12.779Z,89.00
2018-03-31T02:54:39.891Z,88.50
2018-03-31T02:57:06.869Z,89.20
2018-03-31T02:59:33.860Z,89.80
2018-03-31T03:02:00.865Z,90.70
2018-03-31T03:04:27.948Z,90.20
2018-03-31T03:06:54.932Z,90.40
2018-03-31T03:09:21.928Z,90.40
2018-03-31T03:11:48.928Z,90.50
2018-03-31T03:14:15.932Z,90.60
2018-03-31T03:16:43.412Z,90.60
2018-03-31T03:19:10.378Z,90.70
2018-03-31T03:21:37.368Z,90.60
2018-03-31T03:24:05.133Z,90.70
2018-03-31T03:26:32.884Z,90.80
2018-03-31T03:29:00.615Z,90.80
2018-03-31T03:31:27.623Z,90.70
2018-03-31T03:33:54.607Z,90.70
2018-03-31T03:36:21.602Z,90.60
2018-03-31T03:38:49.363Z,90.50
2018-03-31T03:41:17.106Z,90.60
2018-03-31T03:43:44.097Z,90.60
2018-03-31T03:46:11.083Z,90.70
2018-03-31T03:48:38.092Z,90.80
2018-03-31T03:51:05.094Z,90.80
2018-03-31T03:53:32.076Z,90.70
2018-03-31T03:55:59.083Z,90.70
2018-03-31T03:58:26.162Z,90.80
2018-03-31T04:00:53.894Z,90.80
2018-03-31T04:03:20.891Z,90.70
2018-03-31T04:05:48.019Z,90.80
2018-03-31T04:08:15.795Z,90.80
2018-03-31T04:10:42.821Z,90.70
2018-03-31T04:13:09.796Z,90.70
2018-03-31T04:15:36.823Z,91.00
2018-03-31T04:18:04.602Z,90.70
2018-03-31T04:20:32.357Z,90.60
2018-03-31T04:23:00.146Z,90.40
2018-03-31T04:25:27.171Z,90.40
2018-03-31T04:27:54.969Z,90.40
2018-03-31T04:30:21.960Z,90.40
2018-03-31T04:32:49.074Z,90.80
2018-03-31T04:35:16.066Z,90.60
2018-03-31T04:37:43.836Z,90.40
2018-03-31T04:40:11.590Z,90.60
2018-03-31T04:42:39.386Z,90.50
2018-03-31T04:45:07.151Z,90.50
2018-03-31T04:47:34.149Z,90.60
2018-03-31T04:50:01.131Z,90.60
2018-03-31T04:52:28.921Z,90.70
2018-03-31T04:54:55.963Z,90.70
2018-03-31T04:57:22.926Z,90.90
2018-03-31T04:59:49.925Z,91.00
2018-03-31T05:02:17.659Z,91.20
2018-03-31T05:04:44.645Z,91.20
2018-03-31T05:07:12.423Z,91.40
2018-03-31T05:09:39.422Z,91.30
2018-03-31T05:12:06.411Z,91.20
2018-03-31T05:14:34.144Z,91.20
2018-03-31T05:17:01.663Z,91.20
2018-03-31T05:19:28.631Z,91.30
2018-03-31T05:21:55.653Z,91.10
2018-03-31T05:24:22.673Z,91.10
2018-03-31T05:26:50.436Z,90.80
2018-03-31T05:29:18.177Z,90.80
2018-03-31T05:31:45.179Z,90.90
2018-03-31T05:34:12.201Z,90.80
2018-03-31T05:36:39.227Z,90.80
2018-03-31T05:39:06.196Z,90.90
2018-03-31T05:41:33.264Z,91.10
2018-03-31T05:44:00.267Z,90.80
2018-03-31T05:46:28.027Z,90.80
2018-03-31T05:48:55.081Z,90.70
2018-03-31T05:51:22.069Z,90.70
2018-03-31T05:53:49.065Z,90.70
2018-03-31T05:56:16.071Z,90.70
2018-03-31T05:58:43.072Z,90.70
2018-03-31T06:01:10.824Z,90.70
2018-03-31T06:03:37.862Z,90.70
2018-03-31T06:06:04.809Z,90.70
2018-03-31T06:08:31.776Z,90.70
2018-03-31T06:10:59.583Z,90.50
2018-03-31T06:13:26.590Z,90.50
2018-03-31T06:15:54.430Z,90.60
2018-03-31T06:18:21.430Z,90.60
2018-03-31T06:20:48.419Z,90.40
2018-03-31T06:23:15.410Z,90.40
2018-03-31T06:25:43.168Z,90.40
2018-03-31T06:28:10.938Z,90.50
2018-03-31T06:30:38.736Z,90.30
2018-03-31T06:33:06.457Z,90.10
2018-03-31T06:35:34.270Z,90.10
2018-03-31T06:38:01.251Z,90.10
2018-03-31T06:40:28.284Z,90.00
2018-03-31T06:42:55.264Z,89.90
2018-03-31T06:45:22.992Z,89.50
2018-03-31T06:47:49.972Z,89.50
2018-03-31T06:50:17.773Z,89.50
2018-03-31T06:52:44.810Z,89.40
2018-03-31T06:55:12.582Z,88.70
2018-03-31T06:57:39.600Z,88.60
2018-03-31T07:00:07.355Z,87.80
2018-03-31T07:02:34.403Z,87.70
2018-03-31T07:05:01.400Z,87.20
2018-03-31T07:07:28.439Z,86.40
2018-03-31T07:09:55.404Z,85.70
2018-03-31T07:12:22.396Z,84.90
2018-03-31T07:14:50.158Z,83.40
2018-03-31T07:17:17.943Z,81.80
2018-03-31T07:19:44.934Z,81.80
2018-03-31T07:22:12.709Z,81.00
2018-03-31T07:24:39.768Z,80.90
2018-03-31T07:27:06.721Z,81.10
2018-03-31T07:29:33.720Z,80.10
2018-03-31T07:32:00.732Z,79.60
2018-03-31T07:34:27.726Z,79.20
2018-03-31T07:36:54.711Z,77.80
2018-03-31T07:39:22.464Z,77.60
2018-03-31T07:41:49.491Z,77.60
2018-03-31T07:44:16.590Z,78.40
2018-03-31T07:46:43.636Z,78.90
2018-03-31T07:49:11.371Z,78.30
2018-03-31T07:51:38.379Z,78.30
2018-03-31T07:54:05.366Z,78.60
2018-03-31T07:56:32.616Z,78.60
2018-03-31T07:58:59.639Z,78.30
2018-03-31T08:01:26.643Z,79.30
2018-03-31T08:03:53.691Z,78.10
2018-03-31T08:06:21.444Z,78.20
2018-03-31T08:08:49.258Z,78.00
2018-03-31T08:11:16.264Z,77.80
2018-03-31T08:13:43.264Z,77.60
2018-03-31T08:16:10.296Z,77.70
2018-03-31T08:18:37.297Z,76.60
2018-03-31T08:21:05.116Z,76.90
2018-03-31T08:23:32.160Z,76.80
2018-03-31T08:25:59.173Z,76.40
2018-03-31T08:28:26.929Z,76.80
2018-03-31T08:30:54.692Z,76.80
2018-03-31T08:33:22.455Z,77.00
2018-03-31T08:35:50.220Z,75.40
2018-03-31T08:38:17.975Z,75.30
2018-03-31T08:40:45.740Z,73.70
2018-03-31T08:43:13.498Z,72.30
2018-03-31T08:45:40.496Z,72.30
2018-03-31T08:48:07.470Z,71.50
2018-03-31T08:50:34.459Z,74.50
2018-03-31T08:53:02.216Z,75.50
2018-03-31T08:55:29.992Z,76.30
2018-03-31T08:57:57.803Z,76.40
2018-03-31T09:00:24.808Z,76.30
2018-03-31T09:02:51.798Z,75.60
2018-03-31T09:05:18.835Z,75.00
2018-03-31T09:07:45.934Z,75.40
2018-03-31T09:10:13.703Z,75.40
2018-03-31T09:12:41.509Z,75.70
2018-03-31T09:15:09.224Z,75.70
2018-03-31T09:17:37.041Z,74.60
2018-03-31T09:20:04.022Z,74.60
2018-03-31T09:22:31.058Z,73.60
2018-03-31T09:24:58.036Z,73.80
2018-03-31T09:27:25.040Z,74.20
2018-03-31T09:29:52.013Z,72.60
2018-03-31T09:32:19.016Z,73.50
2018-03-31T09:34:45.996Z,73.00
2018-03-31T09:37:13.015Z,73.40
2018-03-31T09:39:40.033Z,72.50
2018-03-31T09:42:07.085Z,72.30
2018-03-31T09:44:34.083Z,73.00
2018-03-31T09:47:01.077Z,72.60
2018-03-31T09:49:28.076Z,72.40
2018-03-31T09:51:55.095Z,72.00
2018-03-31T09:54:22.178Z,71.20
2018-03-31T09:56:49.166Z,69.50
2018-03-31T09:59:16.173Z,69.50
2018-03-31T10:01:43.248Z,67.90
2018-03-31T10:04:10.992Z,68.30
2018-03-31T10:06:38.792Z,68.20
2018-03-31T10:09:05.799Z,68.20
2018-03-31T10:11:32.812Z,69.40
2018-03-31T10:13:59.811Z,71.20
2018-03-31T10:16:27.639Z,72.10
2018-03-31T10:18:54.613Z,72.10
2018-03-31T10:21:21.613Z,73.40
2018-03-31T10:23:48.593Z,72.60
2018-03-31T10:26:15.707Z,72.40
2018-03-31T10:28:42.679Z,72.20
2018-03-31T10:31:09.690Z,71.80
2018-03-31T10:33:36.689Z,72.20
2018-03-31T10:36:03.815Z,72.00
2018-03-31T10:38:30.802Z,72.30
2018-03-31T10:40:58.543Z,67.80
2018-03-31T10:43:25.607Z,67.70
2018-03-31T10:45:52.617Z,66.80
2018-03-31T10:48:20.379Z,68.20
2018-03-31T10:50:47.425Z,68.20
2018-03-31T10:53:14.437Z,69.80
2018-03-31T10:55:41.420Z,68.40
2018-03-31T10:58:08.424Z,68.30
2018-03-31T11:00:36.176Z,66.30
2018-03-31T11:03:03.168Z,66.20
2018-03-31T11:05:30.158Z,64.50
2018-03-31T11:07:57.249Z,65.10
2018-03-31T11:10:24.240Z,66.90
2018-03-31T11:12:51.294Z,66.20
2018-03-31T11:15:18.237Z,64.60
2018-03-31T11:17:45.261Z,62.80
2018-03-31T11:20:12.254Z,61.00
2018-03-31T11:22:40.068Z,61.40
2018-03-31T11:25:07.060Z,61.40
2018-03-31T11:27:34.859Z,64.60
2018-03-31T11:30:01.853Z,64.60
2018-03-31T11:32:28.864Z,64.60
2018-03-31T11:34:55.864Z,64.60
2018-03-31T11:37:22.892Z,63.60
2018-03-31T11:39:49.905Z,62.70
2018-03-31T11:42:16.891Z,62.90
2018-03-31T11:44:43.896Z,62.60
2018-03-31T11:47:10.896Z,61.20
2018-03-31T11:49:38.062Z,61.70
2018-03-31T11:52:10.585Z,60.30
2018-03-31T11:54:37.770Z,60.30
2018-03-31T11:57:04.769Z,60.00
2018-03-31T12:00:11.913Z,59.80
2018-03-31T12:02:52.740Z,60.40
2018-03-31T12:05:20.840Z,60.40
2018-03-31T12:07:47.891Z,60.30
2018-03-31T12:10:14.924Z,59.70
2018-03-31T12:12:42.100Z,58.60
2018-03-31T12:15:09.121Z,58.20
2018-03-31T12:17:36.143Z,57.80
2018-03-31T12:20:03.184Z,56.00
2018-03-31T12:22:30.171Z,56.20
2018-03-31T12:25:04.478Z,56.30
2018-03-31T12:27:31.532Z,56.50
2018-03-31T12:30:05.769Z,56.90
2018-03-31T12:32:33.974Z,56.90
2018-03-31T12:35:01.927Z,55.10
2018-03-31T12:37:28.979Z,55.00
2018-03-31T12:39:56.773Z,56.70
2018-03-31T12:42:23.802Z,56.70
2018-03-31T12:44:51.553Z,57.10
2018-03-31T12:47:19.341Z,58.30
2018-03-31T12:49:46.330Z,58.30
2018-03-31T12:52:13.412Z,58.40
2018-03-31T12:54:40.388Z,58.40
2018-03-31T12:57:07.491Z,59.60
2018-03-31T12:59:34.484Z,60.30
2018-03-31T13:02:01.500Z,59.90
2018-03-31T13:04:29.312Z,61.30
2018-03-31T13:06:57.051Z,60.40
2018-03-31T13:09:24.814Z,60.60
2018-03-31T13:11:52.544Z,59.40
2018-03-31T13:14:19.549Z,59.30
2018-03-31T13:16:46.528Z,59.50
2018-03-31T13:19:13.520Z,59.40
2018-03-31T13:21:41.380Z,59.10
2018-03-31T13:24:09.169Z,57.60
2018-03-31T13:26:36.161Z,57.60
2018-03-31T13:29:03.163Z,60.60
2018-03-31T13:31:30.252Z,65.00
2018-03-31T13:33:57.299Z,66.10
2018-03-31T13:36:24.348Z,67.00
2018-03-31T13:38:51.460Z,67.60
2018-03-31T13:41:18.494Z,67.90
2018-03-31T13:43:45.650Z,68.10
2018-03-31T13:46:12.654Z,66.00
2018-03-31T13:48:39.688Z,64.80
2018-03-31T13:51:06.685Z,63.20
2018-03-31T13:53:33.707Z,64.80
2018-03-31T13:56:00.730Z,66.30
2018-03-31T13:58:27.742Z,68.00
2018-03-31T14:00:54.817Z,68.10
2018-03-31T14:03:21.793Z,67.50
2018-03-31T14:05:48.796Z,67.40
2018-03-31T14:08:15.814Z,67.50
2018-03-31T14:10:42.824Z,67.80
2018-03-31T14:13:09.933Z,68.40
2018-03-31T14:15:36.972Z,68.20
2018-03-31T14:18:03.960Z,69.30
2018-03-31T14:20:30.984Z,68.60
2018-03-31T14:22:58.102Z,68.10
2018-03-31T14:25:25.092Z,70.10
2018-03-31T14:27:52.095Z,68.70
2018-03-31T14:30:19.115Z,68.10
2018-03-31T14:32:46.142Z,66.50
2018-03-31T14:35:13.150Z,68.10
2018-03-31T14:37:40.146Z,68.70
2018-03-31T14:40:07.126Z,68.70
2018-03-31T14:42:34.224Z,70.30
2018-03-31T14:45:01.198Z,71.40
2018-03-31T14:47:29.004Z,72.30
2018-03-31T14:49:56.005Z,71.50
2018-03-31T14:52:23.029Z,71.20
2018-03-31T14:54:50.045Z,72.10
2018-03-31T14:57:17.054Z,72.90
2018-03-31T14:59:44.083Z,72.10
2018-03-31T15:02:11.080Z,73.10
2018-03-31T15:04:38.078Z,73.10
2018-03-31T15:07:05.128Z,73.10
2018-03-31T15:09:32.235Z,74.00
2018-03-31T15:12:00.896Z,74.00
2018-03-31T15:14:28.634Z,74.10
2018-03-31T15:16:55.635Z,73.90
2018-03-31T15:19:22.623Z,74.80
2018-03-31T15:21:49.651Z,75.40
2018-03-31T15:24:16.632Z,75.50
2018-03-31T15:26:44.420Z,76.10
2018-03-31T15:29:11.436Z,75.90
2018-03-31T15:31:38.424Z,76.20
2018-03-31T15:34:05.410Z,76.70
2018-03-31T15:36:32.409Z,76.30
2018-03-31T15:38:59.532Z,76.10
2018-03-31T15:41:26.656Z,75.90
2018-03-31T15:43:53.698Z,76.50
2018-03-31T15:46:20.700Z,76.80
2018-03-31T15:48:47.702Z,76.60
2018-03-31T15:51:14.731Z,76.70
2018-03-31T15:53:41.753Z,77.00
2018-03-31T15:56:08.743Z,77.60
2018-03-31T15:58:35.735Z,77.20
2018-03-31T16:01:02.756Z,77.20
2018-03-31T16:03:29.820Z,77.10
2018-03-31T16:05:56.816Z,76.60
2018-03-31T16:08:23.917Z,77.40
2018-03-31T16:10:51.749Z,77.30
2018-03-31T16:13:18.725Z,77.30
2018-03-31T16:15:46.547Z,77.30
2018-03-31T16:18:13.553Z,77.20
2018-03-31T16:20:40.556Z,77.70
2018-03-31T16:23:07.589Z,77.50
2018-03-31T16:25:34.577Z,77.10
2018-03-31T16:28:02.345Z,77.50
2018-03-31T16:30:30.229Z,77.60
2018-03-31T16:32:57.262Z,77.50
2018-03-31T16:35:25.067Z,78.00
2018-03-31T16:37:52.163Z,77.90
2018-03-31T16:40:19.980Z,77.20
2018-03-31T16:42:47.299Z,77.10
2018-03-31T16:45:15.043Z,77.20
2018-03-31T16:47:42.120Z,77.20
2018-03-31T16:50:09.146Z,77.70
2018-03-31T16:52:36.918Z,77.90
2018-03-31T16:55:04.703Z,78.40
2018-03-31T16:57:31.717Z,78.30
2018-03-31T16:59:59.537Z,79.30
2018-03-31T17:02:26.545Z,79.30
2018-03-31T17:04:54.307Z,79.70
2018-03-31T17:07:22.084Z,80.10
2018-03-31T17:09:49.602Z,79.90
2018-03-31T17:12:16.592Z,80.40
2018-03-31T17:14:43.594Z,80.70
2018-03-31T17:17:10.598Z,80.60
2018-03-31T17:19:37.669Z,80.20
2018-03-31T17:22:04.679Z,80.10
2018-03-31T17:24:32.310Z,80.50
2018-03-31T17:26:59.312Z,81.00
2018-03-31T17:29:26.306Z,80.80
2018-03-31T17:31:53.302Z,81.40
2018-03-31T17:34:20.338Z,81.50
2018-03-31T17:36:47.358Z,81.50
2018-03-31T17:39:14.336Z,81.50
2018-03-31T17:41:41.351Z,81.70
2018-03-31T17:44:09.905Z,82.30
2018-03-31T17:46:36.914Z,82.70
2018-03-31T17:49:04.041Z,82.30
2018-03-31T17:51:31.825Z,82.50
2018-03-31T17:53:58.864Z,82.40
2018-03-31T17:56:25.892Z,82.80
2018-03-31T17:58:53.714Z,82.80
2018-03-31T18:01:20.724Z,82.80
2018-03-31T18:03:47.770Z,82.80
2018-03-31T18:06:14.810Z,82.90
2018-03-31T18:08:41.789Z,82.70
2018-03-31T18:11:08.827Z,82.60
2018-03-31T18:13:35.838Z,82.40
2018-03-31T18:16:03.618Z,82.30
2018-03-31T18:18:31.391Z,82.70
2018-03-31T18:20:58.401Z,82.70
2018-03-31T18:23:25.386Z,82.90
2018-03-31T18:25:52.396Z,82.80
2018-03-31T18:28:19.403Z,83.10
2018-03-31T18:30:46.406Z,83.40
2018-03-31T18:33:13.491Z,83.70
2018-03-31T18:35:40.484Z,83.30
2018-03-31T18:38:07.551Z,83.50
2018-03-31T18:40:35.326Z,84.00
2018-03-31T18:43:03.099Z,84.20
2018-03-31T18:45:30.159Z,84.20
2018-03-31T18:47:57.151Z,83.80
2018-03-31T18:50:24.145Z,83.50
2018-03-31T18:52:51.198Z,83.70
2018-03-31T18:55:18.292Z,84.00
2018-03-31T18:57:45.306Z,84.20
2018-03-31T19:00:12.341Z,84.20
2018-03-31T19:02:39.403Z,84.00
2018-03-31T19:05:06.429Z,84.20
2018-03-31T19:07:33.425Z,84.20
2018-03-31T19:10:00.476Z,84.20
2018-03-31T19:12:27.473Z,84.80
2018-03-31T19:14:54.477Z,85.10
2018-03-31T19:17:21.474Z,85.10
2018-03-31T19:19:48.484Z,84.50
2018-03-31T19:22:16.307Z,84.20
2018-03-31T19:24:49.124Z,84.20
2018-03-31T19:27:16.092Z,84.30
2018-03-31T19:29:44.012Z,84.50
2018-03-31T19:32:11.233Z,84.40
2018-03-31T19:34:38.255Z,83.80
2018-03-31T19:37:06.023Z,83.00
2018-03-31T19:39:39.467Z,82.40
2018-03-31T19:42:06.441Z,82.40
2018-03-31T19:44:33.445Z,82.20
2018-03-31T19:47:00.450Z,82.00
2018-03-31T19:49:27.473Z,82.00
2018-03-31T19:51:54.592Z,82.10
2018-03-31T19:54:21.627Z,82.20
2018-03-31T19:56:48.648Z,82.30
2018-03-31T19:59:16.445Z,82.70
2018-03-31T20:01:43.450Z,82.50
2018-03-31T20:04:11.725Z,82.10
2018-03-31T20:06:39.533Z,82.50
2018-03-31T20:09:06.500Z,82.40
2018-03-31T20:11:33.491Z,82.40
2018-03-31T20:14:01.300Z,82.00
2018-03-31T20:16:28.305Z,82.00
2018-03-31T20:18:55.295Z,81.80
2018-03-31T20:21:22.306Z,82.20
2018-03-31T20:23:50.092Z,81.60
2018-03-31T20:26:17.089Z,81.60
2018-03-31T20:28:44.155Z,80.90
2018-03-31T20:31:11.100Z,81.20
2018-03-31T20:33:38.851Z,81.00
2018-03-31T20:36:05.905Z,80.90
2018-03-31T20:38:33.004Z,80.70
2018-03-31T20:40:59.989Z,80.90
2018-03-31T20:43:27.018Z,80.90
2018-03-31T20:45:54.023Z,81.10
2018-03-31T20:48:21.023Z,80.90
2018-03-31T20:50:47.992Z,80.90
2018-03-31T20:53:14.999Z,81.00
2018-03-31T20:55:42.008Z,81.30
2018-03-31T20:58:09.062Z,81.40
2018-03-31T21:00:36.072Z,81.30
2018-03-31T21:03:03.200Z,81.50
2018-03-31T21:05:30.190Z,81.30
2018-03-31T21:07:57.990Z,81.70
2018-03-31T21:10:24.978Z,81.70
2018-03-31T21:12:51.981Z,80.80
2018-03-31T21:15:18.997Z,81.00
2018-03-31T21:17:46.741Z,80.80
2018-03-31T21:20:13.805Z,80.70
2018-03-31T21:22:41.564Z,80.70
2018-03-31T21:25:09.346Z,81.00
2018-03-31T21:27:37.142Z,81.10
2018-03-31T21:30:04.177Z,81.10
2018-03-31T21:32:31.180Z,81.10
2018-03-31T21:34:58.250Z,81.20
2018-03-31T21:37:26.037Z,81.40
2018-03-31T21:39:53.053Z,81.40
2018-03-31T21:42:20.866Z,80.60
2018-03-31T21:44:47.849Z,80.60
2018-03-31T21:47:14.889Z,80.40
2018-03-31T21:49:41.896Z,80.00
2018-03-31T21:52:08.953Z,79.70
2018-03-31T21:54:35.939Z,79.70
2018-03-31T21:57:02.962Z,79.50
2018-03-31T21:59:29.932Z,79.70
2018-03-31T22:01:56.959Z,79.80
2018-03-31T22:04:24.029Z,81.00
2018-03-31T22:06:51.039Z,80.50
2018-03-31T22:09:18.030Z,80.70
2018-03-31T22:11:45.030Z,81.00
2018-03-31T22:14:18.072Z,80.60
2018-03-31T22:16:45.071Z,81.30
2018-03-31T22:19:12.099Z,81.30
2018-03-31T22:21:39.149Z,81.40
2018-03-31T22:24:06.150Z,81.30
2018-03-31T22:26:33.168Z,81.30
2018-03-31T22:29:00.296Z,81.10
2018-03-31T22:31:27.277Z,80.40
2018-03-31T22:33:54.361Z,80.60
2018-03-31T22:36:22.154Z,80.00
2018-03-31T22:38:49.181Z,79.90
2018-03-31T22:41:16.986Z,80.80
2018-03-31T22:43:44.033Z,80.00
2018-03-31T22:46:11.082Z,80.40
2018-03-31T22:48:38.083Z,80.40
2018-03-31T22:51:05.887Z,80.60
2018-03-31T22:53:32.896Z,80.50
2018-03-31T22:55:59.892Z,80.90
2018-03-31T22:58:27.698Z,80.50
2018-03-31T23:00:55.509Z,80.60
2018-03-31T23:03:22.515Z,80.60
2018-03-31T23:05:50.306Z,80.80
2018-03-31T23:08:19.152Z,80.80
2018-03-31T23:10:46.261Z,80.90
2018-03-31T23:13:13.261Z,81.10
2018-03-31T23:15:41.065Z,81.00
2018-03-31T23:18:08.064Z,81.00
2018-03-31T23:20:35.086Z,81.10
2018-03-31T23:23:02.067Z,81.10
2018-03-31T23:25:29.871Z,81.00
2018-03-31T23:27:56.881Z,81.00
2018-03-31T23:30:24.703Z,81.00
2018-03-31T23:32:51.675Z,81.00
2018-03-31T23:35:18.768Z,80.80
2018-03-31T23:37:45.778Z,80.60
2018-03-31T23:40:13.567Z,81.30
2018-03-31T23:42:40.567Z,81.30
2018-03-31T23:45:07.646Z,81.20
2018-03-31T23:47:34.675Z,81.20
2018-03-31T23:50:01.665Z,81.20
2018-03-31T23:52:28.724Z,81.40
2018-03-31T23:54:55.777Z,81.50
2018-03-31T23:57:22.891Z,81.60
2018-03-31T23:59:49.893Z,81.30
